sensor_id;sensor_type;location;lat;lon;timestamp;P1;durP1;ratioP1;P2;durP2;ratioP2
44272;SDS011;29964;17.182;-96.766;2023-01-01T00:00:09;6.87;;;1.23;;
44272;SDS011;29964;17.182;-96.766;2023-01-01T00:02:36;2.20;;;1.30;;
44272;SDS011;29964;17.182;-96.766;2023-01-01T00:05:04;2.53;;;1.17;;
44272;SDS011;29964;17.182;-96.766;2023-01-01T00:07:31;2.07;;;1.20;;
44272;SDS011;29964;17.182;-96.766;2023-01-01T00:09:57;1.23;;;0.70;;
44272;SDS011;29964;17.182;-96.766;2023-01-01T00:12:43;1.30;;;1.00;;
44272;SDS011;29964;17.182;-96.766;2023-01-01T00:15:09;3.07;;;1.33;;
44272;SDS011;29964;17.182;-96.766;2023-01-01T00:17:36;7.30;;;2.57;;
44272;SDS011;29964;17.182;-96.766;2023-01-01T00:20:03;18.20;;;4.87;;
44272;SDS011;29964;17.182;-96.766;2023-01-01T00:22:30;22.43;;;4.37;;
44272;SDS011;29964;17.182;-96.766;2023-01-01T00:24:57;8.00;;;3.17;;
44272;SDS011;29964;17.182;-96.766;2023-01-01T00:27:23;13.73;;;3.70;;
44272;SDS011;29964;17.182;-96.766;2023-01-01T00:29:50;2.27;;;1.70;;
44272;SDS011;29964;17.182;-96.766;2023-01-01T00:32:17;16.13;;;4.17;;
44272;SDS011;29964;17.182;-96.766;2023-01-01T00:34:43;6.30;;;2.97;;
44272;SDS011;29964;17.182;-96.766;2023-01-01T00:37:10;13.17;;;2.80;;
44272;SDS011;29964;17.182;-96.766;2023-01-01T00:39:37;4.53;;;3.20;;
44272;SDS011;29964;17.182;-96.766;2023-01-01T00:42:03;10.23;;;2.37;;
44272;SDS011;29964;17.182;-96.766;2023-01-01T00:44:30;4.47;;;2.10;;
44272;SDS011;29964;17.182;-96.766;2023-01-01T00:46:57;4.23;;;2.60;;
44272;SDS011;29964;17.182;-96.766;2023-01-01T00:49:23;4.67;;;2.57;;
44272;SDS011;29964;17.182;-96.766;2023-01-01T00:51:50;5.37;;;2.47;;
44272;SDS011;29964;17.182;-96.766;2023-01-01T00:54:17;5.33;;;3.07;;
44272;SDS011;29964;17.182;-96.766;2023-01-01T00:56:43;8.60;;;2.90;;
44272;SDS011;29964;17.182;-96.766;2023-01-01T00:59:10;3.70;;;2.40;;
44272;SDS011;29964;17.182;-96.766;2023-01-01T01:01:37;3.97;;;2.33;;
44272;SDS011;29964;17.182;-96.766;2023-01-01T01:04:05;10.07;;;4.20;;
44272;SDS011;29964;17.182;-96.766;2023-01-01T01:06:33;5.30;;;3.03;;
44272;SDS011;29964;17.182;-96.766;2023-01-01T01:09:00;13.33;;;3.67;;
44272;SDS011;29964;17.182;-96.766;2023-01-01T01:11:27;6.03;;;2.70;;
44272;SDS011;29964;17.182;-96.766;2023-01-01T01:13:54;2.77;;;1.90;;
44272;SDS011;29964;17.182;-96.766;2023-01-01T01:18:51;3.20;;;1.50;;
44272;SDS011;29964;17.182;-96.766;2023-01-01T01:21:19;4.67;;;1.53;;
44272;SDS011;29964;17.182;-96.766;2023-01-01T01:23:46;5.27;;;2.37;;
44272;SDS011;29964;17.182;-96.766;2023-01-01T01:26:22;5.77;;;3.27;;
44272;SDS011;29964;17.182;-96.766;2023-01-01T01:28:49;12.40;;;2.72;;
44272;SDS011;29964;17.182;-96.766;2023-01-01T01:31:19;4.93;;;2.50;;
44272;SDS011;29964;17.182;-96.766;2023-01-01T01:33:47;9.33;;;3.30;;
44272;SDS011;29964;17.182;-96.766;2023-01-01T01:36:14;3.57;;;2.20;;
44272;SDS011;29964;17.182;-96.766;2023-01-01T01:38:41;5.93;;;3.40;;
44272;SDS011;29964;17.182;-96.766;2023-01-01T01:41:08;15.83;;;2.93;;
44272;SDS011;29964;17.182;-96.766;2023-01-01T01:46:04;5.00;;;2.83;;
44272;SDS011;29964;17.182;-96.766;2023-01-01T01:48:52;8.30;;;3.93;;
44272;SDS011;29964;17.182;-96.766;2023-01-01T01:51:19;10.83;;;3.50;;
44272;SDS011;29964;17.182;-96.766;2023-01-01T01:53:52;8.30;;;3.73;;
44272;SDS011;29964;17.182;-96.766;2023-01-01T01:56:38;7.20;;;2.90;;
44272;SDS011;29964;17.182;-96.766;2023-01-01T01:59:05;3.73;;;2.63;;
44272;SDS011;29964;17.182;-96.766;2023-01-01T02:01:33;5.00;;;2.37;;
44272;SDS011;29964;17.182;-96.766;2023-01-01T02:04:00;13.87;;;2.90;;
44272;SDS011;29964;17.182;-96.766;2023-01-01T02:06:28;3.47;;;2.03;;
44272;SDS011;29964;17.182;-96.766;2023-01-01T02:08:55;14.73;;;1.73;;
44272;SDS011;29964;17.182;-96.766;2023-01-01T02:11:22;2.90;;;1.57;;
44272;SDS011;29964;17.182;-96.766;2023-01-01T02:13:49;2.07;;;1.40;;
44272;SDS011;29964;17.182;-96.766;2023-01-01T02:21:19;6.40;;;2.13;;
44272;SDS011;29964;17.182;-96.766;2023-01-01T02:23:50;9.33;;;3.00;;
44272;SDS011;29964;17.182;-96.766;2023-01-01T02:29:29;7.80;;;3.63;;
44272;SDS011;29964;17.182;-96.766;2023-01-01T02:31:57;3.53;;;2.30;;
44272;SDS011;29964;17.182;-96.766;2023-01-01T02:34:26;3.23;;;2.50;;
44272;SDS011;29964;17.182;-96.766;2023-01-01T02:36:54;6.20;;;2.43;;
44272;SDS011;29964;17.182;-96.766;2023-01-01T02:39:22;5.83;;;2.87;;
44272;SDS011;29964;17.182;-96.766;2023-01-01T02:41:51;10.97;;;2.60;;
44272;SDS011;29964;17.182;-96.766;2023-01-01T02:44:20;7.90;;;2.63;;
44272;SDS011;29964;17.182;-96.766;2023-01-01T02:46:48;3.13;;;1.70;;
44272;SDS011;29964;17.182;-96.766;2023-01-01T02:49:14;2.53;;;1.67;;
44272;SDS011;29964;17.182;-96.766;2023-01-01T02:56:42;6.10;;;2.97;;
44272;SDS011;29964;17.182;-96.766;2023-01-01T02:59:22;5.70;;;3.23;;
44272;SDS011;29964;17.182;-96.766;2023-01-01T03:04:56;4.70;;;2.43;;
44272;SDS011;29964;17.182;-96.766;2023-01-01T03:09:55;6.07;;;3.23;;
44272;SDS011;29964;17.182;-96.766;2023-01-01T03:17:34;7.20;;;2.83;;
44272;SDS011;29964;17.182;-96.766;2023-01-01T03:20:05;10.77;;;3.73;;
44272;SDS011;29964;17.182;-96.766;2023-01-01T03:22:34;7.63;;;3.13;;
44272;SDS011;29964;17.182;-96.766;2023-01-01T03:25:08;2.83;;;1.93;;
44272;SDS011;29964;17.182;-96.766;2023-01-01T03:27:40;4.63;;;2.83;;
44272;SDS011;29964;17.182;-96.766;2023-01-01T03:30:10;3.00;;;1.67;;
44272;SDS011;29964;17.182;-96.766;2023-01-01T03:32:39;5.67;;;2.80;;
44272;SDS011;29964;17.182;-96.766;2023-01-01T03:35:38;3.10;;;1.87;;
44272;SDS011;29964;17.182;-96.766;2023-01-01T03:38:08;6.03;;;2.47;;
44272;SDS011;29964;17.182;-96.766;2023-01-01T03:40:36;4.17;;;2.57;;
44272;SDS011;29964;17.182;-96.766;2023-01-01T03:43:16;6.17;;;2.97;;
44272;SDS011;29964;17.182;-96.766;2023-01-01T03:45:45;7.53;;;2.87;;
44272;SDS011;29964;17.182;-96.766;2023-01-01T03:48:14;11.03;;;1.87;;
44272;SDS011;29964;17.182;-96.766;2023-01-01T03:53:39;5.03;;;2.33;;
44272;SDS011;29964;17.182;-96.766;2023-01-01T03:56:12;4.77;;;1.60;;
44272;SDS011;29964;17.182;-96.766;2023-01-01T03:58:48;5.00;;;1.77;;
44272;SDS011;29964;17.182;-96.766;2023-01-01T04:01:29;4.30;;;2.90;;
44272;SDS011;29964;17.182;-96.766;2023-01-01T04:03:57;5.73;;;2.80;;
44272;SDS011;29964;17.182;-96.766;2023-01-01T04:06:25;6.10;;;2.13;;
44272;SDS011;29964;17.182;-96.766;2023-01-01T04:08:52;1.13;;;0.93;;
44272;SDS011;29964;17.182;-96.766;2023-01-01T04:11:22;1.80;;;1.63;;
44272;SDS011;29964;17.182;-96.766;2023-01-01T04:14:08;2.37;;;1.53;;
44272;SDS011;29964;17.182;-96.766;2023-01-01T04:16:35;7.37;;;4.40;;
44272;SDS011;29964;17.182;-96.766;2023-01-01T04:19:02;2.83;;;1.83;;
44272;SDS011;29964;17.182;-96.766;2023-01-01T04:21:31;4.27;;;3.37;;
44272;SDS011;29964;17.182;-96.766;2023-01-01T04:23:58;4.30;;;2.33;;
44272;SDS011;29964;17.182;-96.766;2023-01-01T04:26:25;4.10;;;2.67;;
44272;SDS011;29964;17.182;-96.766;2023-01-01T04:28:51;2.57;;;1.97;;
44272;SDS011;29964;17.182;-96.766;2023-01-01T04:31:18;2.87;;;2.17;;
44272;SDS011;29964;17.182;-96.766;2023-01-01T04:33:45;2.37;;;1.83;;
44272;SDS011;29964;17.182;-96.766;2023-01-01T04:36:12;6.97;;;4.30;;
44272;SDS011;29964;17.182;-96.766;2023-01-01T04:38:40;6.03;;;2.80;;
44272;SDS011;29964;17.182;-96.766;2023-01-01T04:41:07;3.17;;;2.27;;
44272;SDS011;29964;17.182;-96.766;2023-01-01T04:43:34;8.40;;;3.73;;
44272;SDS011;29964;17.182;-96.766;2023-01-01T04:46:02;6.47;;;3.87;;
44272;SDS011;29964;17.182;-96.766;2023-01-01T04:48:29;10.70;;;3.70;;
44272;SDS011;29964;17.182;-96.766;2023-01-01T04:50:57;5.37;;;4.10;;
44272;SDS011;29964;17.182;-96.766;2023-01-01T04:53:24;4.07;;;2.67;;
44272;SDS011;29964;17.182;-96.766;2023-01-01T04:55:51;3.60;;;2.37;;
44272;SDS011;29964;17.182;-96.766;2023-01-01T04:58:18;5.87;;;3.07;;
44272;SDS011;29964;17.182;-96.766;2023-01-01T05:00:48;3.03;;;2.23;;
44272;SDS011;29964;17.182;-96.766;2023-01-01T05:03:19;1.73;;;1.50;;
44272;SDS011;29964;17.182;-96.766;2023-01-01T05:05:46;2.23;;;1.87;;
44272;SDS011;29964;17.182;-96.766;2023-01-01T05:08:14;2.27;;;1.40;;
44272;SDS011;29964;17.182;-96.766;2023-01-01T05:10:41;3.00;;;2.23;;
44272;SDS011;29964;17.182;-96.766;2023-01-01T05:13:07;3.07;;;1.50;;
44272;SDS011;29964;17.182;-96.766;2023-01-01T05:15:35;3.60;;;2.63;;
44272;SDS011;29964;17.182;-96.766;2023-01-01T05:18:02;7.40;;;3.47;;
44272;SDS011;29964;17.182;-96.766;2023-01-01T05:20:28;6.20;;;3.27;;
44272;SDS011;29964;17.182;-96.766;2023-01-01T05:22:55;4.53;;;3.43;;
44272;SDS011;29964;17.182;-96.766;2023-01-01T05:25:22;6.97;;;3.37;;
44272;SDS011;29964;17.182;-96.766;2023-01-01T05:27:49;10.27;;;2.80;;
44272;SDS011;29964;17.182;-96.766;2023-01-01T05:30:17;5.80;;;3.30;;
44272;SDS011;29964;17.182;-96.766;2023-01-01T05:32:43;3.40;;;2.40;;
44272;SDS011;29964;17.182;-96.766;2023-01-01T05:35:10;1.73;;;1.37;;
44272;SDS011;29964;17.182;-96.766;2023-01-01T05:37:37;5.37;;;3.63;;
44272;SDS011;29964;17.182;-96.766;2023-01-01T05:40:04;2.83;;;1.90;;
44272;SDS011;29964;17.182;-96.766;2023-01-01T05:42:34;6.63;;;2.83;;
44272;SDS011;29964;17.182;-96.766;2023-01-01T05:45:01;3.70;;;2.63;;
44272;SDS011;29964;17.182;-96.766;2023-01-01T05:47:27;3.50;;;1.73;;
44272;SDS011;29964;17.182;-96.766;2023-01-01T05:49:54;4.80;;;3.23;;
44272;SDS011;29964;17.182;-96.766;2023-01-01T05:52:21;3.87;;;2.67;;
44272;SDS011;29964;17.182;-96.766;2023-01-01T05:54:47;3.63;;;2.10;;
44272;SDS011;29964;17.182;-96.766;2023-01-01T05:57:14;4.87;;;2.67;;
44272;SDS011;29964;17.182;-96.766;2023-01-01T05:59:41;23.17;;;2.73;;
44272;SDS011;29964;17.182;-96.766;2023-01-01T06:02:07;6.93;;;4.67;;
44272;SDS011;29964;17.182;-96.766;2023-01-01T06:04:34;4.50;;;3.37;;
44272;SDS011;29964;17.182;-96.766;2023-01-01T06:07:01;7.47;;;4.30;;
44272;SDS011;29964;17.182;-96.766;2023-01-01T06:09:28;4.03;;;2.97;;
44272;SDS011;29964;17.182;-96.766;2023-01-01T06:11:54;4.53;;;2.33;;
44272;SDS011;29964;17.182;-96.766;2023-01-01T06:14:21;11.67;;;3.37;;
44272;SDS011;29964;17.182;-96.766;2023-01-01T06:16:48;3.83;;;2.83;;
44272;SDS011;29964;17.182;-96.766;2023-01-01T06:19:14;3.37;;;2.80;;
44272;SDS011;29964;17.182;-96.766;2023-01-01T06:21:41;4.23;;;3.33;;
44272;SDS011;29964;17.182;-96.766;2023-01-01T06:24:08;11.87;;;3.73;;
44272;SDS011;29964;17.182;-96.766;2023-01-01T06:26:34;4.33;;;2.90;;
44272;SDS011;29964;17.182;-96.766;2023-01-01T06:29:01;4.70;;;3.07;;
44272;SDS011;29964;17.182;-96.766;2023-01-01T06:31:28;2.73;;;2.40;;
44272;SDS011;29964;17.182;-96.766;2023-01-01T06:33:55;9.60;;;4.67;;
44272;SDS011;29964;17.182;-96.766;2023-01-01T06:36:23;6.10;;;4.20;;
44272;SDS011;29964;17.182;-96.766;2023-01-01T06:38:51;7.53;;;4.27;;
44272;SDS011;29964;17.182;-96.766;2023-01-01T06:41:18;2.97;;;2.27;;
44272;SDS011;29964;17.182;-96.766;2023-01-01T06:43:45;6.50;;;3.50;;
44272;SDS011;29964;17.182;-96.766;2023-01-01T06:48:42;5.90;;;3.53;;
44272;SDS011;29964;17.182;-96.766;2023-01-01T06:51:13;6.40;;;2.87;;
44272;SDS011;29964;17.182;-96.766;2023-01-01T06:53:40;4.30;;;3.30;;
44272;SDS011;29964;17.182;-96.766;2023-01-01T06:56:07;8.77;;;5.77;;
44272;SDS011;29964;17.182;-96.766;2023-01-01T06:58:34;4.90;;;3.70;;
44272;SDS011;29964;17.182;-96.766;2023-01-01T07:03:33;25.93;;;11.03;;
44272;SDS011;29964;17.182;-96.766;2023-01-01T07:06:00;22.80;;;11.20;;
44272;SDS011;29964;17.182;-96.766;2023-01-01T07:08:27;19.37;;;11.50;;
44272;SDS011;29964;17.182;-96.766;2023-01-01T07:10:53;17.77;;;12.83;;
44272;SDS011;29964;17.182;-96.766;2023-01-01T07:13:25;20.07;;;7.97;;
44272;SDS011;29964;17.182;-96.766;2023-01-01T07:15:52;8.27;;;6.37;;
44272;SDS011;29964;17.182;-96.766;2023-01-01T07:18:19;16.07;;;10.10;;
44272;SDS011;29964;17.182;-96.766;2023-01-01T07:20:55;17.23;;;11.20;;
44272;SDS011;29964;17.182;-96.766;2023-01-01T07:23:23;28.47;;;10.03;;
44272;SDS011;29964;17.182;-96.766;2023-01-01T07:25:50;12.30;;;8.03;;
44272;SDS011;29964;17.182;-96.766;2023-01-01T07:28:17;11.77;;;8.10;;
44272;SDS011;29964;17.182;-96.766;2023-01-01T07:30:44;9.90;;;5.77;;
44272;SDS011;29964;17.182;-96.766;2023-01-01T07:33:11;9.73;;;8.17;;
44272;SDS011;29964;17.182;-96.766;2023-01-01T07:35:39;10.40;;;7.90;;
44272;SDS011;29964;17.182;-96.766;2023-01-01T07:38:05;11.57;;;6.90;;
44272;SDS011;29964;17.182;-96.766;2023-01-01T07:40:32;11.43;;;7.00;;
44272;SDS011;29964;17.182;-96.766;2023-01-01T07:42:59;11.40;;;7.57;;
44272;SDS011;29964;17.182;-96.766;2023-01-01T07:45:26;7.13;;;4.90;;
44272;SDS011;29964;17.182;-96.766;2023-01-01T07:47:53;9.30;;;5.80;;
44272;SDS011;29964;17.182;-96.766;2023-01-01T07:50:21;5.83;;;4.87;;
44272;SDS011;29964;17.182;-96.766;2023-01-01T07:52:48;7.40;;;5.10;;
44272;SDS011;29964;17.182;-96.766;2023-01-01T07:55:15;8.53;;;7.20;;
44272;SDS011;29964;17.182;-96.766;2023-01-01T07:57:42;11.67;;;8.40;;
44272;SDS011;29964;17.182;-96.766;2023-01-01T08:00:10;10.60;;;7.43;;
44272;SDS011;29964;17.182;-96.766;2023-01-01T08:02:37;9.50;;;6.70;;
44272;SDS011;29964;17.182;-96.766;2023-01-01T08:05:04;7.73;;;5.20;;
44272;SDS011;29964;17.182;-96.766;2023-01-01T08:07:31;9.47;;;5.50;;
44272;SDS011;29964;17.182;-96.766;2023-01-01T08:09:58;9.03;;;5.27;;
44272;SDS011;29964;17.182;-96.766;2023-01-01T08:12:25;9.60;;;7.53;;
44272;SDS011;29964;17.182;-96.766;2023-01-01T08:14:51;16.53;;;9.50;;
44272;SDS011;29964;17.182;-96.766;2023-01-01T08:17:18;9.57;;;6.67;;
44272;SDS011;29964;17.182;-96.766;2023-01-01T08:19:45;21.77;;;9.13;;
44272;SDS011;29964;17.182;-96.766;2023-01-01T08:22:13;15.03;;;10.17;;
44272;SDS011;29964;17.182;-96.766;2023-01-01T08:24:40;7.00;;;6.03;;
44272;SDS011;29964;17.182;-96.766;2023-01-01T08:27:08;8.77;;;6.40;;
44272;SDS011;29964;17.182;-96.766;2023-01-01T08:29:35;15.17;;;8.97;;
44272;SDS011;29964;17.182;-96.766;2023-01-01T08:32:02;9.03;;;6.40;;
44272;SDS011;29964;17.182;-96.766;2023-01-01T08:34:29;16.73;;;13.07;;
44272;SDS011;29964;17.182;-96.766;2023-01-01T08:36:55;16.17;;;13.50;;
44272;SDS011;29964;17.182;-96.766;2023-01-01T08:39:24;19.07;;;14.17;;
44272;SDS011;29964;17.182;-96.766;2023-01-01T08:41:50;21.50;;;13.67;;
44272;SDS011;29964;17.182;-96.766;2023-01-01T08:44:18;16.23;;;12.23;;
44272;SDS011;29964;17.182;-96.766;2023-01-01T08:46:44;11.43;;;10.20;;
44272;SDS011;29964;17.182;-96.766;2023-01-01T08:49:11;14.23;;;9.27;;
44272;SDS011;29964;17.182;-96.766;2023-01-01T08:51:38;10.53;;;8.03;;
44272;SDS011;29964;17.182;-96.766;2023-01-01T08:54:05;11.83;;;7.83;;
44272;SDS011;29964;17.182;-96.766;2023-01-01T08:56:32;7.93;;;6.70;;
44272;SDS011;29964;17.182;-96.766;2023-01-01T08:58:59;11.17;;;7.37;;
44272;SDS011;29964;17.182;-96.766;2023-01-01T09:01:26;8.17;;;5.93;;
44272;SDS011;29964;17.182;-96.766;2023-01-01T09:03:52;8.77;;;4.17;;
44272;SDS011;29964;17.182;-96.766;2023-01-01T09:06:19;13.73;;;8.70;;
44272;SDS011;29964;17.182;-96.766;2023-01-01T09:08:46;16.70;;;10.43;;
44272;SDS011;29964;17.182;-96.766;2023-01-01T09:11:26;11.30;;;7.83;;
44272;SDS011;29964;17.182;-96.766;2023-01-01T09:13:53;6.23;;;5.60;;
44272;SDS011;29964;17.182;-96.766;2023-01-01T09:16:20;6.63;;;4.50;;
44272;SDS011;29964;17.182;-96.766;2023-01-01T09:18:47;7.53;;;5.07;;
44272;SDS011;29964;17.182;-96.766;2023-01-01T09:21:14;10.83;;;6.43;;
44272;SDS011;29964;17.182;-96.766;2023-01-01T09:23:41;14.77;;;6.60;;
44272;SDS011;29964;17.182;-96.766;2023-01-01T09:26:08;7.30;;;5.73;;
44272;SDS011;29964;17.182;-96.766;2023-01-01T09:28:35;18.67;;;6.37;;
44272;SDS011;29964;17.182;-96.766;2023-01-01T09:31:02;5.17;;;4.20;;
44272;SDS011;29964;17.182;-96.766;2023-01-01T09:33:31;11.30;;;7.77;;
44272;SDS011;29964;17.182;-96.766;2023-01-01T09:36:43;30.57;;;15.90;;
44272;SDS011;29964;17.182;-96.766;2023-01-01T09:38:48;15.87;;;10.80;;
44272;SDS011;29964;17.182;-96.766;2023-01-01T09:41:26;10.63;;;6.47;;
44272;SDS011;29964;17.182;-96.766;2023-01-01T09:44:05;15.00;;;7.67;;
44272;SDS011;29964;17.182;-96.766;2023-01-01T09:46:35;18.40;;;11.87;;
44272;SDS011;29964;17.182;-96.766;2023-01-01T09:49:03;21.43;;;14.87;;
44272;SDS011;29964;17.182;-96.766;2023-01-01T09:51:32;21.93;;;7.90;;
44272;SDS011;29964;17.182;-96.766;2023-01-01T09:54:23;4.23;;;3.77;;
44272;SDS011;29964;17.182;-96.766;2023-01-01T09:56:48;5.77;;;2.73;;
44272;SDS011;29964;17.182;-96.766;2023-01-01T09:59:19;5.90;;;2.97;;
44272;SDS011;29964;17.182;-96.766;2023-01-01T10:12:05;8.70;;;5.47;;
44272;SDS011;29964;17.182;-96.766;2023-01-01T10:14:34;6.67;;;5.30;;
44272;SDS011;29964;17.182;-96.766;2023-01-01T10:17:03;5.67;;;4.87;;
44272;SDS011;29964;17.182;-96.766;2023-01-01T10:19:40;6.10;;;4.27;;
44272;SDS011;29964;17.182;-96.766;2023-01-01T10:22:17;7.60;;;4.23;;
44272;SDS011;29964;17.182;-96.766;2023-01-01T10:24:57;4.53;;;3.33;;
44272;SDS011;29964;17.182;-96.766;2023-01-01T10:27:27;11.33;;;4.73;;
44272;SDS011;29964;17.182;-96.766;2023-01-01T10:29:54;6.67;;;5.03;;
44272;SDS011;29964;17.182;-96.766;2023-01-01T10:32:29;10.00;;;7.57;;
44272;SDS011;29964;17.182;-96.766;2023-01-01T10:34:57;8.17;;;6.80;;
44272;SDS011;29964;17.182;-96.766;2023-01-01T10:37:25;7.83;;;5.47;;
44272;SDS011;29964;17.182;-96.766;2023-01-01T10:39:55;7.60;;;6.13;;
44272;SDS011;29964;17.182;-96.766;2023-01-01T10:42:22;7.17;;;4.70;;
44272;SDS011;29964;17.182;-96.766;2023-01-01T10:44:49;20.43;;;5.47;;
44272;SDS011;29964;17.182;-96.766;2023-01-01T10:49:54;10.57;;;6.17;;
44272;SDS011;29964;17.182;-96.766;2023-01-01T10:52:23;5.97;;;4.00;;
44272;SDS011;29964;17.182;-96.766;2023-01-01T10:54:50;14.87;;;6.60;;
44272;SDS011;29964;17.182;-96.766;2023-01-01T10:57:36;6.43;;;4.70;;
44272;SDS011;29964;17.182;-96.766;2023-01-01T11:02:47;13.57;;;5.83;;
44272;SDS011;29964;17.182;-96.766;2023-01-01T11:05:18;8.93;;;6.93;;
44272;SDS011;29964;17.182;-96.766;2023-01-01T11:07:45;10.97;;;5.30;;
44272;SDS011;29964;17.182;-96.766;2023-01-01T11:10:16;4.50;;;3.83;;
44272;SDS011;29964;17.182;-96.766;2023-01-01T11:12:43;5.73;;;4.03;;
44272;SDS011;29964;17.182;-96.766;2023-01-01T11:15:22;7.20;;;5.37;;
44272;SDS011;29964;17.182;-96.766;2023-01-01T11:17:51;5.73;;;4.30;;
44272;SDS011;29964;17.182;-96.766;2023-01-01T11:20:27;8.57;;;5.37;;
44272;SDS011;29964;17.182;-96.766;2023-01-01T11:22:54;7.63;;;5.03;;
44272;SDS011;29964;17.182;-96.766;2023-01-01T11:25:24;10.13;;;6.03;;
44272;SDS011;29964;17.182;-96.766;2023-01-01T11:27:51;8.20;;;5.27;;
44272;SDS011;29964;17.182;-96.766;2023-01-01T11:30:19;13.17;;;5.67;;
44272;SDS011;29964;17.182;-96.766;2023-01-01T11:32:47;4.63;;;4.10;;
44272;SDS011;29964;17.182;-96.766;2023-01-01T11:35:20;21.30;;;4.57;;
44272;SDS011;29964;17.182;-96.766;2023-01-01T11:37:48;7.43;;;5.23;;
44272;SDS011;29964;17.182;-96.766;2023-01-01T11:40:20;6.97;;;4.57;;
44272;SDS011;29964;17.182;-96.766;2023-01-01T11:42:49;7.70;;;4.43;;
44272;SDS011;29964;17.182;-96.766;2023-01-01T11:45:18;4.40;;;3.37;;
44272;SDS011;29964;17.182;-96.766;2023-01-01T11:47:49;8.63;;;3.40;;
44272;SDS011;29964;17.182;-96.766;2023-01-01T11:50:18;3.80;;;3.07;;
44272;SDS011;29964;17.182;-96.766;2023-01-01T11:52:48;4.27;;;2.20;;
44272;SDS011;29964;17.182;-96.766;2023-01-01T11:58:05;4.43;;;3.23;;
44272;SDS011;29964;17.182;-96.766;2023-01-01T12:00:35;3.87;;;3.10;;
44272;SDS011;29964;17.182;-96.766;2023-01-01T12:05:39;3.77;;;2.63;;
44272;SDS011;29964;17.182;-96.766;2023-01-01T12:08:09;3.80;;;2.87;;
44272;SDS011;29964;17.182;-96.766;2023-01-01T12:10:49;8.50;;;3.63;;
44272;SDS011;29964;17.182;-96.766;2023-01-01T12:13:18;3.20;;;2.20;;
44272;SDS011;29964;17.182;-96.766;2023-01-01T12:18:32;5.43;;;2.90;;
44272;SDS011;29964;17.182;-96.766;2023-01-01T12:21:02;6.53;;;2.60;;
44272;SDS011;29964;17.182;-96.766;2023-01-01T12:23:30;3.07;;;1.60;;
44272;SDS011;29964;17.182;-96.766;2023-01-01T12:26:08;3.80;;;2.93;;
44272;SDS011;29964;17.182;-96.766;2023-01-01T12:28:40;7.23;;;4.03;;
44272;SDS011;29964;17.182;-96.766;2023-01-01T12:46:22;1.90;;;1.43;;
44272;SDS011;29964;17.182;-96.766;2023-01-01T12:51:40;4.00;;;3.03;;
44272;SDS011;29964;17.182;-96.766;2023-01-01T12:59:29;2.07;;;1.80;;
44272;SDS011;29964;17.182;-96.766;2023-01-01T13:01:58;3.27;;;2.93;;
44272;SDS011;29964;17.182;-96.766;2023-01-01T13:04:26;2.67;;;2.10;;
44272;SDS011;29964;17.182;-96.766;2023-01-01T13:06:53;2.93;;;2.43;;
44272;SDS011;29964;17.182;-96.766;2023-01-01T13:09:32;3.38;;;2.80;;
44272;SDS011;29964;17.182;-96.766;2023-01-01T13:12:18;2.07;;;1.47;;
44272;SDS011;29964;17.182;-96.766;2023-01-01T13:14:46;2.70;;;2.10;;
44272;SDS011;29964;17.182;-96.766;2023-01-01T13:17:19;3.73;;;2.10;;
44272;SDS011;29964;17.182;-96.766;2023-01-01T13:19:47;3.37;;;2.17;;
44272;SDS011;29964;17.182;-96.766;2023-01-01T13:36:30;2.73;;;1.97;;
44272;SDS011;29964;17.182;-96.766;2023-01-01T13:38:48;2.73;;;1.60;;
44272;SDS011;29964;17.182;-96.766;2023-01-01T13:44:35;2.93;;;1.83;;
44272;SDS011;29964;17.182;-96.766;2023-01-01T13:49:24;5.33;;;3.00;;
44272;SDS011;29964;17.182;-96.766;2023-01-01T13:54:28;4.70;;;3.07;;
44272;SDS011;29964;17.182;-96.766;2023-01-01T14:02:55;21.13;;;2.47;;
44272;SDS011;29964;17.182;-96.766;2023-01-01T14:10:18;3.33;;;2.10;;
44272;SDS011;29964;17.182;-96.766;2023-01-01T14:12:45;3.77;;;2.20;;
44272;SDS011;29964;17.182;-96.766;2023-01-01T14:17:42;3.70;;;2.30;;
44272;SDS011;29964;17.182;-96.766;2023-01-01T14:20:13;7.90;;;3.07;;
44272;SDS011;29964;17.182;-96.766;2023-01-01T14:22:42;3.83;;;2.40;;
44272;SDS011;29964;17.182;-96.766;2023-01-01T14:25:12;2.03;;;1.67;;
44272;SDS011;29964;17.182;-96.766;2023-01-01T14:27:40;2.43;;;1.80;;
44272;SDS011;29964;17.182;-96.766;2023-01-01T14:30:16;2.13;;;1.77;;
44272;SDS011;29964;17.182;-96.766;2023-01-01T14:32:43;4.03;;;2.13;;
44272;SDS011;29964;17.182;-96.766;2023-01-01T14:35:16;3.77;;;2.73;;
44272;SDS011;29964;17.182;-96.766;2023-01-01T14:37:43;13.70;;;2.77;;
44272;SDS011;29964;17.182;-96.766;2023-01-01T14:40:25;3.83;;;2.67;;
44272;SDS011;29964;17.182;-96.766;2023-01-01T14:42:54;5.80;;;2.63;;
44272;SDS011;29964;17.182;-96.766;2023-01-01T14:45:22;10.70;;;2.83;;
44272;SDS011;29964;17.182;-96.766;2023-01-01T14:47:50;2.93;;;2.23;;
44272;SDS011;29964;17.182;-96.766;2023-01-01T14:50:21;5.53;;;2.60;;
44272;SDS011;29964;17.182;-96.766;2023-01-01T14:52:50;3.27;;;2.00;;
44272;SDS011;29964;17.182;-96.766;2023-01-01T14:55:17;4.17;;;2.87;;
44272;SDS011;29964;17.182;-96.766;2023-01-01T14:57:45;10.90;;;2.57;;
44272;SDS011;29964;17.182;-96.766;2023-01-01T15:00:19;4.10;;;2.77;;
44272;SDS011;29964;17.182;-96.766;2023-01-01T15:02:47;6.07;;;3.57;;
44272;SDS011;29964;17.182;-96.766;2023-01-01T15:05:23;6.43;;;4.00;;
44272;SDS011;29964;17.182;-96.766;2023-01-01T15:07:55;4.57;;;3.10;;
44272;SDS011;29964;17.182;-96.766;2023-01-01T15:10:22;3.53;;;2.57;;
44272;SDS011;29964;17.182;-96.766;2023-01-01T15:12:49;3.43;;;2.07;;
44272;SDS011;29964;17.182;-96.766;2023-01-01T15:18:00;4.53;;;2.75;;
44272;SDS011;29964;17.182;-96.766;2023-01-01T15:20:27;4.00;;;2.23;;
44272;SDS011;29964;17.182;-96.766;2023-01-01T15:22:54;4.50;;;3.00;;
44272;SDS011;29964;17.182;-96.766;2023-01-01T15:25:23;9.57;;;3.70;;
44272;SDS011;29964;17.182;-96.766;2023-01-01T15:27:51;5.23;;;2.73;;
44272;SDS011;29964;17.182;-96.766;2023-01-01T15:30:25;7.40;;;2.27;;
44272;SDS011;29964;17.182;-96.766;2023-01-01T15:32:52;4.53;;;2.97;;
44272;SDS011;29964;17.182;-96.766;2023-01-01T15:35:27;6.00;;;2.43;;
44272;SDS011;29964;17.182;-96.766;2023-01-01T15:37:56;5.47;;;2.30;;
44272;SDS011;29964;17.182;-96.766;2023-01-01T15:45:29;2.77;;;1.60;;
44272;SDS011;29964;17.182;-96.766;2023-01-01T15:48:18;2.43;;;1.63;;
44272;SDS011;29964;17.182;-96.766;2023-01-01T15:53:19;2.50;;;1.50;;
44272;SDS011;29964;17.182;-96.766;2023-01-01T15:55:54;3.20;;;2.07;;
44272;SDS011;29964;17.182;-96.766;2023-01-01T15:58:22;2.50;;;1.77;;
44272;SDS011;29964;17.182;-96.766;2023-01-01T16:00:55;5.47;;;2.03;;
44272;SDS011;29964;17.182;-96.766;2023-01-01T16:03:23;2.83;;;2.07;;
44272;SDS011;29964;17.182;-96.766;2023-01-01T16:05:50;3.73;;;1.50;;
44272;SDS011;29964;17.182;-96.766;2023-01-01T16:08:19;3.57;;;1.60;;
44272;SDS011;29964;17.182;-96.766;2023-01-01T16:10:46;3.13;;;1.30;;
44272;SDS011;29964;17.182;-96.766;2023-01-01T16:13:13;6.53;;;1.87;;
44272;SDS011;29964;17.182;-96.766;2023-01-01T16:15:53;4.47;;;1.87;;
44272;SDS011;29964;17.182;-96.766;2023-01-01T16:18:21;4.57;;;2.30;;
44272;SDS011;29964;17.182;-96.766;2023-01-01T16:20:49;3.53;;;2.10;;
44272;SDS011;29964;17.182;-96.766;2023-01-01T16:23:16;5.30;;;2.00;;
44272;SDS011;29964;17.182;-96.766;2023-01-01T16:25:43;2.33;;;1.73;;
44272;SDS011;29964;17.182;-96.766;2023-01-01T16:28:10;10.03;;;1.63;;
44272;SDS011;29964;17.182;-96.766;2023-01-01T16:30:36;3.37;;;1.37;;
44272;SDS011;29964;17.182;-96.766;2023-01-01T16:33:04;4.00;;;1.77;;
44272;SDS011;29964;17.182;-96.766;2023-01-01T16:35:31;2.63;;;1.50;;
44272;SDS011;29964;17.182;-96.766;2023-01-01T16:37:58;4.60;;;1.30;;